AirNav   TITAN Aviation Fuels
 
 1044 users online  

MN15 Smith Field Airport
Elko, Minnesota, USA

GOING TO ELKO?


FAA INFORMATION EFFECTIVE 16 JUNE 2022

Location

FAA Identifier: MN15
Lat/Long: 44-37-24.0200N 093-24-07.3900W
44-37.400333N 093-24.123167W
44.6233389,-93.4020528
(estimated)
Elevation: 958 ft. / 292 m (estimated)
From city: 5 miles N of ELKO, MN
Time zone: UTC -5 (UTC -6 during Standard Time)
Zip code: 55372

Airport Operations

Airport use: Private use. Permission required prior to landing
Activation date: 10/2014
Control tower: no
ARTCC: MINNEAPOLIS CENTER
FSS: PRINCETON FLIGHT SERVICE STATION
Attendance: UNATTND
Segmented circle: no

Airport Communications

WX AWOS-3 at LVN (7 nm E): 118.0 (952-469-5850)
WX ASOS at FCM (12 nm N): PHONE 952-941-4156
WX ASOS at MSP (17 nm NE): PHONE 612-713-4174
WX AWOS-3 at FBL (18 nm S): 120.2 (507-332-2505)
WX AWOS-3 at SYN (19 nm SE): 119.35 (507-664-3806)

Airport Services

Runway Information

Runway 9/27

Dimensions: 1383 x 75 ft. / 422 x 23 m
Surface: turf
RUNWAY 9  RUNWAY 27
Traffic pattern: leftleft

Airport Ownership and Management from official FAA records

Ownership: Privately-owned
Owner: JEFF SMITH
5756 230TH ST
ELKO, MN 56020
Phone 612-685-4620
Manager: JEFF SMITH
5756 230TH ST
ELKO, MN 56020
Phone 612-685-4620

Additional Remarks

DO NOT CHART PER MINNESOTA DEPARTMENT OF TRANSPORTATION
FOR CD CTC MINNEAPOLIS ARTCC AT 651-463-5588.

Instrument Procedures

There are no published instrument procedures at MN15.

Some nearby airports with instrument procedures:

KLVN - Airlake Airport (7 nm E)
KFCM - Flying Cloud Airport (12 nm N)
KMSP - Minneapolis-St Paul International/Wold-Chamberlain Airport (17 nm NE)
KFBL - Faribault Municipal Airport-Liz Wall Strohfus Field (18 nm S)
KSGS - South St Paul Municipal Airport-Richard E Fleming Field (21 nm NE)
 
Loc | Ops | Rwys | IFR | FBO | Links
Com | Nav | Svcs | Stats | Notes
Aerial photo
No photo
 
Airport distance calculator
Flying to Smith Field Airport? Find the distance to fly.

From to MN15

Sunrise and sunset
Times for 25-Jun-2022
 Local
(UTC-5)
 Zulu
(UTC)
Morning civil twilight04:5309:53
Sunrise05:3010:30
Sunset21:0202:02
Evening civil twilight21:3902:39

Current date and time
Zulu (UTC)  25-Jun-2022 13:24:07
Local (UTC-5)  25-Jun-2022 08:24:07
 
METAR
KLVN 
8nm E 
251255Z AUTO RMK AO2 PWINO
KFCM 
13nm N 
251253Z 04008KT 10SM FEW036 OVC070 21/19 A2985 RMK AO2 SLP103 T02060189
KMSP 
17nm NE 
251253Z 09006KT 10SM BKN065 OVC150 22/19 A2987 RMK AO2 SLP108 VIRGA T02170189
KSGS 
17nm NE 
251255Z AUTO 13004KT 10SM SCT036 SCT050 21/19 A2986 RMK AO2 T02110187 P0001
KSYN 
19nm SE 
251255Z AUTO 16007KT 10SM SCT041 21/19 A2988 RMK AO2 LTG DSNT SE T02050186 P0003
KFBL 
19nm S 
251255Z AUTO 13008KT 10SM BKN024 21/19 A2988 RMK AO2 LTG DSNT NE AND E
TAF
KMSP 
17nm NE 
251130Z 2512/2618 VRB05KT 6SM -RA SCT028 OVC050 TEMPO 2512/2514 3SM TSRA BR BKN025CB FM251400 20007KT 6SM -RA OVC018 FM251700 26009KT P6SM OVC019 FM251900 28011KT P6SM BKN025 FM252100 29012G23KT P6SM SCT035 BKN080 FM260000 30013G23KT P6SM FEW250
NOTAMs
Click for the latest NOTAMs
NOTAMs are issued by the DoD/FAA and will open in a separate window not controlled by AirNav.

 

 
 

Would you like to see your business listed on this page?

 If your business provides an interesting product or service to pilots, flight crews, aircraft, or users of the Smith Field Airport, you should consider listing it here.  To start the listing process, click on the button below
 
Add a business
 

Other Pages about Smith Field Airport

Update a link
 
Copyright © AirNav, LLC. All rights reserved. Privacy Policy  Contact